sensor_id;sensor_type;location;lat;lon;timestamp;P1;durP1;ratioP1;P2;durP2;ratioP2
44885;SDS011;36669;51.428;21.162;2022-09-21T00:02:13;13.75;;;8.93;;
44885;SDS011;36669;51.428;21.162;2022-09-21T00:04:38;13.48;;;8.88;;
44885;SDS011;36669;51.428;21.162;2022-09-21T00:07:04;13.90;;;9.27;;
44885;SDS011;36669;51.428;21.162;2022-09-21T00:09:29;13.77;;;8.60;;
44885;SDS011;36669;51.428;21.162;2022-09-21T00:11:55;17.75;;;8.98;;
44885;SDS011;36669;51.428;21.162;2022-09-21T00:14:20;11.85;;;8.25;;
44885;SDS011;36669;51.428;21.162;2022-09-21T00:16:46;13.93;;;10.00;;
44885;SDS011;36669;51.428;21.162;2022-09-21T00:19:11;14.18;;;7.20;;
44885;SDS011;36669;51.428;21.162;2022-09-21T00:21:37;11.85;;;8.68;;
44885;SDS011;36669;51.428;21.162;2022-09-21T00:24:03;10.88;;;7.30;;
44885;SDS011;36669;51.428;21.162;2022-09-21T00:26:30;10.30;;;6.88;;
44885;SDS011;36669;51.428;21.162;2022-09-21T00:28:59;10.85;;;7.80;;
44885;SDS011;36669;51.428;21.162;2022-09-21T00:31:26;12.88;;;8.25;;
44885;SDS011;36669;51.428;21.162;2022-09-21T00:33:53;13.35;;;8.63;;
44885;SDS011;36669;51.428;21.162;2022-09-21T00:36:20;12.90;;;8.23;;
44885;SDS011;36669;51.428;21.162;2022-09-21T00:39:05;13.57;;;8.30;;
44885;SDS011;36669;51.428;21.162;2022-09-21T00:41:31;13.00;;;8.10;;
44885;SDS011;36669;51.428;21.162;2022-09-21T00:46:48;10.27;;;7.60;;
44885;SDS011;36669;51.428;21.162;2022-09-21T00:49:16;10.95;;;7.85;;
44885;SDS011;36669;51.428;21.162;2022-09-21T00:51:42;12.80;;;7.72;;
44885;SDS011;36669;51.428;21.162;2022-09-21T00:54:10;10.63;;;7.50;;
44885;SDS011;36669;51.428;21.162;2022-09-21T00:56:41;11.82;;;8.15;;
44885;SDS011;36669;51.428;21.162;2022-09-21T00:59:08;11.45;;;7.50;;
44885;SDS011;36669;51.428;21.162;2022-09-21T01:01:35;13.85;;;7.53;;
44885;SDS011;36669;51.428;21.162;2022-09-21T01:04:00;11.88;;;8.38;;
44885;SDS011;36669;51.428;21.162;2022-09-21T01:06:27;11.32;;;7.75;;
44885;SDS011;36669;51.428;21.162;2022-09-21T01:08:53;12.30;;;8.38;;
44885;SDS011;36669;51.428;21.162;2022-09-21T01:11:28;14.50;;;8.25;;
44885;SDS011;36669;51.428;21.162;2022-09-21T01:17:29;11.45;;;8.00;;
44885;SDS011;36669;51.428;21.162;2022-09-21T01:22:56;11.65;;;7.35;;
44885;SDS011;36669;51.428;21.162;2022-09-21T01:31:06;12.20;;;7.82;;
44885;SDS011;36669;51.428;21.162;2022-09-21T01:33:38;13.07;;;7.63;;
44885;SDS011;36669;51.428;21.162;2022-09-21T01:36:12;12.98;;;8.95;;
44885;SDS011;36669;51.428;21.162;2022-09-21T01:38:42;15.27;;;8.50;;
44885;SDS011;36669;51.428;21.162;2022-09-21T01:41:12;12.80;;;9.63;;
44885;SDS011;36669;51.428;21.162;2022-09-21T01:43:42;12.45;;;8.63;;
44885;SDS011;36669;51.428;21.162;2022-09-21T01:46:13;16.33;;;9.25;;
44885;SDS011;36669;51.428;21.162;2022-09-21T01:48:43;14.20;;;9.93;;
44885;SDS011;36669;51.428;21.162;2022-09-21T01:51:12;18.05;;;8.93;;
44885;SDS011;36669;51.428;21.162;2022-09-21T01:53:46;10.93;;;7.68;;
44885;SDS011;36669;51.428;21.162;2022-09-21T02:02:03;11.05;;;8.27;;
44885;SDS011;36669;51.428;21.162;2022-09-21T02:04:37;15.45;;;10.13;;
44885;SDS011;36669;51.428;21.162;2022-09-21T02:07:03;12.70;;;8.90;;
44885;SDS011;36669;51.428;21.162;2022-09-21T02:09:29;11.20;;;8.50;;
44885;SDS011;36669;51.428;21.162;2022-09-21T02:11:54;11.27;;;8.43;;
44885;SDS011;36669;51.428;21.162;2022-09-21T02:14:20;15.13;;;10.02;;
44885;SDS011;36669;51.428;21.162;2022-09-21T02:22:10;15.70;;;11.98;;
44885;SDS011;36669;51.428;21.162;2022-09-21T02:29:59;19.23;;;13.25;;
44885;SDS011;36669;51.428;21.162;2022-09-21T02:43:36;18.73;;;13.48;;
44885;SDS011;36669;51.428;21.162;2022-09-21T02:46:23;17.35;;;14.32;;
44885;SDS011;36669;51.428;21.162;2022-09-21T02:48:57;19.25;;;14.40;;
44885;SDS011;36669;51.428;21.162;2022-09-21T02:51:28;22.88;;;16.00;;
44885;SDS011;36669;51.428;21.162;2022-09-21T02:53:57;19.02;;;14.02;;
44885;SDS011;36669;51.428;21.162;2022-09-21T02:56:27;21.80;;;14.77;;
44885;SDS011;36669;51.428;21.162;2022-09-21T02:58:55;20.45;;;13.85;;
44885;SDS011;36669;51.428;21.162;2022-09-21T03:01:24;24.92;;;13.18;;
44885;SDS011;36669;51.428;21.162;2022-09-21T03:03:50;27.08;;;14.98;;
44885;SDS011;36669;51.428;21.162;2022-09-21T03:06:16;21.25;;;15.50;;
44885;SDS011;36669;51.428;21.162;2022-09-21T03:08:41;19.10;;;14.07;;
44885;SDS011;36669;51.428;21.162;2022-09-21T03:11:07;18.30;;;13.57;;
44885;SDS011;36669;51.428;21.162;2022-09-21T03:13:32;20.63;;;15.45;;
44885;SDS011;36669;51.428;21.162;2022-09-21T03:16:01;26.38;;;16.83;;
44885;SDS011;36669;51.428;21.162;2022-09-21T03:18:29;22.50;;;15.45;;
44885;SDS011;36669;51.428;21.162;2022-09-21T03:20:56;21.20;;;13.88;;
44885;SDS011;36669;51.428;21.162;2022-09-21T03:23:21;20.70;;;13.40;;
44885;SDS011;36669;51.428;21.162;2022-09-21T03:25:47;18.98;;;15.50;;
44885;SDS011;36669;51.428;21.162;2022-09-21T03:28:13;23.83;;;15.30;;
44885;SDS011;36669;51.428;21.162;2022-09-21T03:30:40;22.65;;;13.90;;
44885;SDS011;36669;51.428;21.162;2022-09-21T03:33:06;21.33;;;13.90;;
44885;SDS011;36669;51.428;21.162;2022-09-21T03:35:31;22.35;;;14.07;;
44885;SDS011;36669;51.428;21.162;2022-09-21T03:37:57;20.63;;;14.48;;
44885;SDS011;36669;51.428;21.162;2022-09-21T03:40:23;20.88;;;14.98;;
44885;SDS011;36669;51.428;21.162;2022-09-21T03:42:49;19.00;;;13.85;;
44885;SDS011;36669;51.428;21.162;2022-09-21T03:45:14;21.25;;;14.45;;
44885;SDS011;36669;51.428;21.162;2022-09-21T03:47:40;20.48;;;13.75;;
44885;SDS011;36669;51.428;21.162;2022-09-21T03:50:06;20.20;;;14.90;;
44885;SDS011;36669;51.428;21.162;2022-09-21T03:52:32;20.15;;;16.65;;
44885;SDS011;36669;51.428;21.162;2022-09-21T03:54:57;15.52;;;11.10;;
44885;SDS011;36669;51.428;21.162;2022-09-21T03:57:23;22.05;;;15.35;;
44885;SDS011;36669;51.428;21.162;2022-09-21T03:59:49;21.92;;;15.07;;
44885;SDS011;36669;51.428;21.162;2022-09-21T04:02:15;25.63;;;17.40;;
44885;SDS011;36669;51.428;21.162;2022-09-21T04:04:40;23.40;;;17.70;;
44885;SDS011;36669;51.428;21.162;2022-09-21T04:07:06;25.60;;;18.38;;
44885;SDS011;36669;51.428;21.162;2022-09-21T04:09:31;18.75;;;13.88;;
44885;SDS011;36669;51.428;21.162;2022-09-21T04:11:57;22.75;;;16.80;;
44885;SDS011;36669;51.428;21.162;2022-09-21T04:14:22;24.23;;;17.13;;
44885;SDS011;36669;51.428;21.162;2022-09-21T04:16:48;25.30;;;18.42;;
44885;SDS011;36669;51.428;21.162;2022-09-21T04:19:14;19.83;;;15.02;;
44885;SDS011;36669;51.428;21.162;2022-09-21T04:21:39;26.73;;;19.13;;
44885;SDS011;36669;51.428;21.162;2022-09-21T04:24:05;24.48;;;17.05;;
44885;SDS011;36669;51.428;21.162;2022-09-21T04:26:31;25.10;;;17.63;;
44885;SDS011;36669;51.428;21.162;2022-09-21T04:28:58;26.85;;;19.08;;
44885;SDS011;36669;51.428;21.162;2022-09-21T04:31:24;25.85;;;18.65;;
44885;SDS011;36669;51.428;21.162;2022-09-21T04:33:51;30.05;;;19.80;;
44885;SDS011;36669;51.428;21.162;2022-09-21T04:36:19;28.67;;;19.60;;
44885;SDS011;36669;51.428;21.162;2022-09-21T04:38:46;29.92;;;19.75;;
44885;SDS011;36669;51.428;21.162;2022-09-21T04:41:11;27.15;;;19.35;;
44885;SDS011;36669;51.428;21.162;2022-09-21T04:43:37;26.38;;;19.88;;
44885;SDS011;36669;51.428;21.162;2022-09-21T04:46:07;24.33;;;18.15;;
44885;SDS011;36669;51.428;21.162;2022-09-21T04:48:34;26.38;;;16.15;;
44885;SDS011;36669;51.428;21.162;2022-09-21T04:51:00;24.48;;;16.13;;
44885;SDS011;36669;51.428;21.162;2022-09-21T04:53:26;25.85;;;20.17;;
44885;SDS011;36669;51.428;21.162;2022-09-21T04:55:52;27.08;;;19.35;;
44885;SDS011;36669;51.428;21.162;2022-09-21T04:58:18;25.23;;;19.70;;
44885;SDS011;36669;51.428;21.162;2022-09-21T05:00:43;32.08;;;20.63;;
44885;SDS011;36669;51.428;21.162;2022-09-21T05:03:09;25.65;;;19.95;;
44885;SDS011;36669;51.428;21.162;2022-09-21T05:05:34;30.85;;;19.88;;
44885;SDS011;36669;51.428;21.162;2022-09-21T05:08:00;27.35;;;17.88;;
44885;SDS011;36669;51.428;21.162;2022-09-21T05:10:25;28.13;;;21.00;;
44885;SDS011;36669;51.428;21.162;2022-09-21T05:12:51;30.27;;;19.58;;
44885;SDS011;36669;51.428;21.162;2022-09-21T05:15:16;24.90;;;16.17;;
44885;SDS011;36669;51.428;21.162;2022-09-21T05:17:42;26.10;;;18.98;;
44885;SDS011;36669;51.428;21.162;2022-09-21T05:20:08;25.50;;;18.75;;
44885;SDS011;36669;51.428;21.162;2022-09-21T05:22:34;22.08;;;15.95;;
44885;SDS011;36669;51.428;21.162;2022-09-21T05:25:00;24.40;;;16.52;;
44885;SDS011;36669;51.428;21.162;2022-09-21T05:27:25;26.80;;;20.52;;
44885;SDS011;36669;51.428;21.162;2022-09-21T05:29:51;23.50;;;16.05;;
44885;SDS011;36669;51.428;21.162;2022-09-21T05:35:06;21.13;;;16.45;;
44885;SDS011;36669;51.428;21.162;2022-09-21T05:37:58;20.98;;;16.27;;
44885;SDS011;36669;51.428;21.162;2022-09-21T05:40:27;24.17;;;16.73;;
44885;SDS011;36669;51.428;21.162;2022-09-21T05:42:53;25.35;;;17.20;;
44885;SDS011;36669;51.428;21.162;2022-09-21T05:45:19;23.55;;;16.13;;
44885;SDS011;36669;51.428;21.162;2022-09-21T05:47:48;24.38;;;17.20;;
44885;SDS011;36669;51.428;21.162;2022-09-21T05:53:04;22.23;;;13.88;;
44885;SDS011;36669;51.428;21.162;2022-09-21T05:58:30;20.63;;;15.35;;
44885;SDS011;36669;51.428;21.162;2022-09-21T06:01:15;20.73;;;15.13;;
44885;SDS011;36669;51.428;21.162;2022-09-21T06:04:02;20.88;;;15.18;;
44885;SDS011;36669;51.428;21.162;2022-09-21T06:06:28;21.58;;;13.98;;
44885;SDS011;36669;51.428;21.162;2022-09-21T06:08:54;20.58;;;14.73;;
44885;SDS011;36669;51.428;21.162;2022-09-21T06:11:20;18.90;;;13.68;;
44885;SDS011;36669;51.428;21.162;2022-09-21T06:13:45;22.65;;;15.52;;
44885;SDS011;36669;51.428;21.162;2022-09-21T06:16:11;22.60;;;14.63;;
44885;SDS011;36669;51.428;21.162;2022-09-21T06:18:37;22.92;;;16.55;;
44885;SDS011;36669;51.428;21.162;2022-09-21T06:21:03;23.58;;;14.90;;
44885;SDS011;36669;51.428;21.162;2022-09-21T06:23:29;17.52;;;12.27;;
44885;SDS011;36669;51.428;21.162;2022-09-21T06:25:54;18.83;;;13.90;;
44885;SDS011;36669;51.428;21.162;2022-09-21T06:28:20;19.42;;;14.48;;
44885;SDS011;36669;51.428;21.162;2022-09-21T06:30:51;18.98;;;13.00;;
44885;SDS011;36669;51.428;21.162;2022-09-21T06:33:18;21.13;;;14.03;;
44885;SDS011;36669;51.428;21.162;2022-09-21T06:35:50;19.73;;;14.27;;
44885;SDS011;36669;51.428;21.162;2022-09-21T06:38:19;18.83;;;14.10;;
44885;SDS011;36669;51.428;21.162;2022-09-21T06:40:45;20.42;;;14.57;;
44885;SDS011;36669;51.428;21.162;2022-09-21T06:43:10;23.45;;;14.98;;
44885;SDS011;36669;51.428;21.162;2022-09-21T06:45:36;21.60;;;15.52;;
44885;SDS011;36669;51.428;21.162;2022-09-21T06:48:01;23.20;;;15.00;;
44885;SDS011;36669;51.428;21.162;2022-09-21T06:50:27;22.70;;;16.00;;
44885;SDS011;36669;51.428;21.162;2022-09-21T06:52:52;25.60;;;15.45;;
44885;SDS011;36669;51.428;21.162;2022-09-21T06:55:18;20.73;;;15.02;;
44885;SDS011;36669;51.428;21.162;2022-09-21T06:57:44;18.98;;;12.60;;
44885;SDS011;36669;51.428;21.162;2022-09-21T07:00:10;20.92;;;15.30;;
44885;SDS011;36669;51.428;21.162;2022-09-21T07:02:36;18.80;;;14.93;;
44885;SDS011;36669;51.428;21.162;2022-09-21T07:05:02;25.10;;;14.15;;
44885;SDS011;36669;51.428;21.162;2022-09-21T07:07:28;20.85;;;15.13;;
44885;SDS011;36669;51.428;21.162;2022-09-21T07:09:54;23.17;;;15.57;;
44885;SDS011;36669;51.428;21.162;2022-09-21T07:12:20;20.85;;;15.60;;
44885;SDS011;36669;51.428;21.162;2022-09-21T07:14:46;17.55;;;13.88;;
44885;SDS011;36669;51.428;21.162;2022-09-21T07:17:11;20.27;;;13.90;;
44885;SDS011;36669;51.428;21.162;2022-09-21T07:19:37;18.60;;;12.82;;
44885;SDS011;36669;51.428;21.162;2022-09-21T07:22:03;20.08;;;13.80;;
44885;SDS011;36669;51.428;21.162;2022-09-21T07:24:28;16.55;;;11.65;;
44885;SDS011;36669;51.428;21.162;2022-09-21T07:26:54;17.20;;;13.57;;
44885;SDS011;36669;51.428;21.162;2022-09-21T07:29:19;19.23;;;13.27;;
44885;SDS011;36669;51.428;21.162;2022-09-21T07:31:45;19.10;;;14.02;;
44885;SDS011;36669;51.428;21.162;2022-09-21T07:34:10;19.42;;;13.32;;
44885;SDS011;36669;51.428;21.162;2022-09-21T07:36:36;16.02;;;12.27;;
44885;SDS011;36669;51.428;21.162;2022-09-21T07:39:01;15.20;;;11.35;;
44885;SDS011;36669;51.428;21.162;2022-09-21T07:41:27;17.50;;;11.57;;
44885;SDS011;36669;51.428;21.162;2022-09-21T07:43:53;14.02;;;10.82;;
44885;SDS011;36669;51.428;21.162;2022-09-21T07:46:18;12.73;;;10.55;;
44885;SDS011;36669;51.428;21.162;2022-09-21T07:48:44;17.77;;;10.80;;
44885;SDS011;36669;51.428;21.162;2022-09-21T07:51:10;17.08;;;11.15;;
44885;SDS011;36669;51.428;21.162;2022-09-21T07:53:38;17.08;;;8.45;;
44885;SDS011;36669;51.428;21.162;2022-09-21T07:56:09;16.40;;;10.57;;
44885;SDS011;36669;51.428;21.162;2022-09-21T07:58:36;13.77;;;10.20;;
44885;SDS011;36669;51.428;21.162;2022-09-21T08:01:05;16.00;;;11.43;;
44885;SDS011;36669;51.428;21.162;2022-09-21T08:03:31;15.13;;;10.13;;
44885;SDS011;36669;51.428;21.162;2022-09-21T08:05:57;14.77;;;9.27;;
44885;SDS011;36669;51.428;21.162;2022-09-21T08:08:23;14.30;;;9.00;;
44885;SDS011;36669;51.428;21.162;2022-09-21T08:10:48;12.25;;;8.77;;
44885;SDS011;36669;51.428;21.162;2022-09-21T08:13:14;11.30;;;8.40;;
44885;SDS011;36669;51.428;21.162;2022-09-21T08:15:39;11.90;;;9.38;;
44885;SDS011;36669;51.428;21.162;2022-09-21T08:18:05;14.15;;;8.18;;
44885;SDS011;36669;51.428;21.162;2022-09-21T08:20:30;12.15;;;7.05;;
44885;SDS011;36669;51.428;21.162;2022-09-21T08:22:56;12.18;;;7.28;;
44885;SDS011;36669;51.428;21.162;2022-09-21T08:25:21;9.98;;;7.47;;
44885;SDS011;36669;51.428;21.162;2022-09-21T08:27:47;10.80;;;6.47;;
44885;SDS011;36669;51.428;21.162;2022-09-21T08:30:13;10.10;;;6.18;;
44885;SDS011;36669;51.428;21.162;2022-09-21T08:32:39;11.23;;;6.53;;
44885;SDS011;36669;51.428;21.162;2022-09-21T08:35:05;8.88;;;6.82;;
44885;SDS011;36669;51.428;21.162;2022-09-21T08:37:31;9.05;;;6.07;;
44885;SDS011;36669;51.428;21.162;2022-09-21T08:39:57;7.60;;;5.60;;
44885;SDS011;36669;51.428;21.162;2022-09-21T08:45:01;7.72;;;4.95;;
44885;SDS011;36669;51.428;21.162;2022-09-21T08:47:37;7.60;;;5.30;;
44885;SDS011;36669;51.428;21.162;2022-09-21T08:50:05;6.60;;;4.10;;
44885;SDS011;36669;51.428;21.162;2022-09-21T08:52:57;5.13;;;3.60;;
44885;SDS011;36669;51.428;21.162;2022-09-21T08:55:27;5.10;;;3.53;;
44885;SDS011;36669;51.428;21.162;2022-09-21T08:57:53;5.38;;;3.17;;
44885;SDS011;36669;51.428;21.162;2022-09-21T09:00:18;5.85;;;3.22;;
44885;SDS011;36669;51.428;21.162;2022-09-21T09:05:31;4.38;;;3.20;;
44885;SDS011;36669;51.428;21.162;2022-09-21T09:10:36;4.78;;;3.05;;
44885;SDS011;36669;51.428;21.162;2022-09-21T09:13:31;4.60;;;2.90;;
44885;SDS011;36669;51.428;21.162;2022-09-21T09:16:06;5.72;;;3.05;;
44885;SDS011;36669;51.428;21.162;2022-09-21T09:21:23;3.35;;;2.38;;
44885;SDS011;36669;51.428;21.162;2022-09-21T09:24:08;5.93;;;2.85;;
44885;SDS011;36669;51.428;21.162;2022-09-21T09:26:43;6.38;;;3.17;;
44885;SDS011;36669;51.428;21.162;2022-09-21T09:29:58;4.20;;;3.27;;
44885;SDS011;36669;51.428;21.162;2022-09-21T09:31:57;6.20;;;2.90;;
44885;SDS011;36669;51.428;21.162;2022-09-21T09:34:31;7.25;;;3.15;;
44885;SDS011;36669;51.428;21.162;2022-09-21T09:37:04;6.65;;;3.25;;
44885;SDS011;36669;51.428;21.162;2022-09-21T09:39:36;5.78;;;3.00;;
44885;SDS011;36669;51.428;21.162;2022-09-21T09:50:26;4.32;;;2.38;;
44885;SDS011;36669;51.428;21.162;2022-09-21T09:53:05;4.88;;;2.83;;
44885;SDS011;36669;51.428;21.162;2022-09-21T09:55:45;3.70;;;2.63;;
44885;SDS011;36669;51.428;21.162;2022-09-21T09:58:17;3.80;;;2.45;;
44885;SDS011;36669;51.428;21.162;2022-09-21T10:00:46;6.10;;;3.53;;
44885;SDS011;36669;51.428;21.162;2022-09-21T10:03:16;4.32;;;2.25;;
44885;SDS011;36669;51.428;21.162;2022-09-21T10:05:44;3.95;;;2.30;;
44885;SDS011;36669;51.428;21.162;2022-09-21T10:08:26;3.83;;;2.38;;
44885;SDS011;36669;51.428;21.162;2022-09-21T10:10:55;8.57;;;4.88;;
44885;SDS011;36669;51.428;21.162;2022-09-21T10:13:26;4.82;;;2.20;;
44885;SDS011;36669;51.428;21.162;2022-09-21T10:15:55;4.32;;;2.20;;
44885;SDS011;36669;51.428;21.162;2022-09-21T10:18:37;4.78;;;2.38;;
44885;SDS011;36669;51.428;21.162;2022-09-21T10:21:05;4.38;;;2.40;;
44885;SDS011;36669;51.428;21.162;2022-09-21T10:23:33;4.28;;;2.30;;
44885;SDS011;36669;51.428;21.162;2022-09-21T10:26:06;3.78;;;2.45;;
44885;SDS011;36669;51.428;21.162;2022-09-21T10:28:33;4.97;;;3.22;;
44885;SDS011;36669;51.428;21.162;2022-09-21T10:33:49;6.07;;;2.05;;
44885;SDS011;36669;51.428;21.162;2022-09-21T10:36:51;4.88;;;2.60;;
44885;SDS011;36669;51.428;21.162;2022-09-21T10:42:05;3.90;;;2.70;;
44885;SDS011;36669;51.428;21.162;2022-09-21T10:44:37;5.72;;;2.50;;
44885;SDS011;36669;51.428;21.162;2022-09-21T10:49:51;4.05;;;2.63;;
44885;SDS011;36669;51.428;21.162;2022-09-21T10:52:20;4.18;;;2.10;;
44885;SDS011;36669;51.428;21.162;2022-09-21T10:54:48;3.47;;;2.40;;
44885;SDS011;36669;51.428;21.162;2022-09-21T10:57:16;3.92;;;2.08;;
44885;SDS011;36669;51.428;21.162;2022-09-21T10:59:44;2.63;;;1.73;;
44885;SDS011;36669;51.428;21.162;2022-09-21T11:07:38;2.28;;;1.67;;
44885;SDS011;36669;51.428;21.162;2022-09-21T11:10:17;5.82;;;2.05;;
44885;SDS011;36669;51.428;21.162;2022-09-21T11:18:48;4.68;;;1.70;;
44885;SDS011;36669;51.428;21.162;2022-09-21T11:24:23;3.05;;;1.70;;
44885;SDS011;36669;51.428;21.162;2022-09-21T11:27:13;2.50;;;1.90;;
44885;SDS011;36669;51.428;21.162;2022-09-21T11:29:51;5.38;;;1.80;;
44885;SDS011;36669;51.428;21.162;2022-09-21T11:35:15;4.97;;;2.22;;
44885;SDS011;36669;51.428;21.162;2022-09-21T11:38:04;4.57;;;2.05;;
44885;SDS011;36669;51.428;21.162;2022-09-21T11:49:19;2.33;;;1.80;;
44885;SDS011;36669;51.428;21.162;2022-09-21T12:00:29;3.15;;;1.98;;
44885;SDS011;36669;51.428;21.162;2022-09-21T12:03:25;2.67;;;1.80;;
44885;SDS011;36669;51.428;21.162;2022-09-21T12:17:39;2.70;;;1.95;;
44885;SDS011;36669;51.428;21.162;2022-09-21T12:22:48;3.50;;;1.83;;
44885;SDS011;36669;51.428;21.162;2022-09-21T12:25:24;1.90;;;1.50;;
44885;SDS011;36669;51.428;21.162;2022-09-21T12:28:06;2.53;;;1.15;;
44885;SDS011;36669;51.428;21.162;2022-09-21T12:31:00;1.85;;;1.60;;
44885;SDS011;36669;51.428;21.162;2022-09-21T12:33:37;4.35;;;2.00;;
44885;SDS011;36669;51.428;21.162;2022-09-21T12:36:12;5.60;;;1.73;;
44885;SDS011;36669;51.428;21.162;2022-09-21T12:41:38;2.55;;;1.40;;
44885;SDS011;36669;51.428;21.162;2022-09-21T12:46:46;2.83;;;2.05;;
44885;SDS011;36669;51.428;21.162;2022-09-21T12:49:25;5.80;;;2.08;;
44885;SDS011;36669;51.428;21.162;2022-09-21T12:51:55;1.88;;;1.50;;
44885;SDS011;36669;51.428;21.162;2022-09-21T12:56:52;2.03;;;1.50;;
44885;SDS011;36669;51.428;21.162;2022-09-21T13:12:52;2.88;;;0.95;;
44885;SDS011;36669;51.428;21.162;2022-09-21T13:18:04;1.35;;;0.88;;
44885;SDS011;36669;51.428;21.162;2022-09-21T13:20:40;1.40;;;0.90;;
44885;SDS011;36669;51.428;21.162;2022-09-21T13:23:10;6.60;;;1.42;;
44885;SDS011;36669;51.428;21.162;2022-09-21T13:25:40;2.45;;;1.42;;
44885;SDS011;36669;51.428;21.162;2022-09-21T13:49:02;1.80;;;1.10;;
44885;SDS011;36669;51.428;21.162;2022-09-21T13:51:48;2.20;;;1.17;;
44885;SDS011;36669;51.428;21.162;2022-09-21T13:54:24;4.40;;;1.73;;
44885;SDS011;36669;51.428;21.162;2022-09-21T13:57:13;4.97;;;1.52;;
44885;SDS011;36669;51.428;21.162;2022-09-21T13:59:40;4.03;;;1.55;;
44885;SDS011;36669;51.428;21.162;2022-09-21T14:08:00;5.68;;;2.30;;
44885;SDS011;36669;51.428;21.162;2022-09-21T14:10:26;3.88;;;1.80;;
44885;SDS011;36669;51.428;21.162;2022-09-21T14:12:53;3.35;;;1.92;;
44885;SDS011;36669;51.428;21.162;2022-09-21T14:18:06;4.28;;;2.30;;
44885;SDS011;36669;51.428;21.162;2022-09-21T14:20:33;4.30;;;1.85;;
44885;SDS011;36669;51.428;21.162;2022-09-21T14:25:46;4.45;;;1.88;;
44885;SDS011;36669;51.428;21.162;2022-09-21T14:28:12;5.88;;;2.00;;
44885;SDS011;36669;51.428;21.162;2022-09-21T14:30:39;2.88;;;1.77;;
44885;SDS011;36669;51.428;21.162;2022-09-21T14:35:51;3.60;;;1.60;;
44885;SDS011;36669;51.428;21.162;2022-09-21T14:38:25;5.03;;;1.63;;
44885;SDS011;36669;51.428;21.162;2022-09-21T14:41:02;2.92;;;1.85;;
44885;SDS011;36669;51.428;21.162;2022-09-21T14:43:32;3.88;;;2.03;;
44885;SDS011;36669;51.428;21.162;2022-09-21T14:51:47;7.78;;;2.05;;
44885;SDS011;36669;51.428;21.162;2022-09-21T14:57:14;5.55;;;3.00;;
44885;SDS011;36669;51.428;21.162;2022-09-21T14:59:48;7.00;;;3.88;;
44885;SDS011;36669;51.428;21.162;2022-09-21T15:02:34;5.75;;;3.22;;
44885;SDS011;36669;51.428;21.162;2022-09-21T15:10:30;5.05;;;2.50;;
44885;SDS011;36669;51.428;21.162;2022-09-21T15:18:43;3.17;;;2.10;;
44885;SDS011;36669;51.428;21.162;2022-09-21T15:21:20;3.88;;;1.77;;
44885;SDS011;36669;51.428;21.162;2022-09-21T15:23:46;3.85;;;1.83;;
44885;SDS011;36669;51.428;21.162;2022-09-21T15:26:14;2.33;;;1.50;;
44885;SDS011;36669;51.428;21.162;2022-09-21T15:28:42;5.40;;;1.75;;
44885;SDS011;36669;51.428;21.162;2022-09-21T15:31:10;3.45;;;1.80;;
44885;SDS011;36669;51.428;21.162;2022-09-21T15:33:39;3.10;;;1.58;;
44885;SDS011;36669;51.428;21.162;2022-09-21T15:36:07;3.13;;;1.20;;
44885;SDS011;36669;51.428;21.162;2022-09-21T15:38:33;1.45;;;1.00;;
44885;SDS011;36669;51.428;21.162;2022-09-21T15:40:58;1.20;;;1.00;;
44885;SDS011;36669;51.428;21.162;2022-09-21T15:43:24;2.67;;;1.30;;
44885;SDS011;36669;51.428;21.162;2022-09-21T15:45:56;1.98;;;1.30;;
44885;SDS011;36669;51.428;21.162;2022-09-21T15:48:25;2.55;;;1.20;;
44885;SDS011;36669;51.428;21.162;2022-09-21T15:50:57;2.55;;;1.30;;
44885;SDS011;36669;51.428;21.162;2022-09-21T15:53:47;2.88;;;1.17;;
44885;SDS011;36669;51.428;21.162;2022-09-21T15:56:19;3.45;;;1.60;;
44885;SDS011;36669;51.428;21.162;2022-09-21T15:58:47;3.60;;;2.15;;
44885;SDS011;36669;51.428;21.162;2022-09-21T16:01:15;3.95;;;2.60;;
44885;SDS011;36669;51.428;21.162;2022-09-21T16:03:43;5.63;;;2.97;;
44885;SDS011;36669;51.428;21.162;2022-09-21T16:08:51;3.67;;;2.40;;
44885;SDS011;36669;51.428;21.162;2022-09-21T16:13:56;5.10;;;2.05;;
44885;SDS011;36669;51.428;21.162;2022-09-21T16:16:23;4.63;;;2.10;;
44885;SDS011;36669;51.428;21.162;2022-09-21T16:18:50;8.18;;;2.55;;
44885;SDS011;36669;51.428;21.162;2022-09-21T16:21:24;6.70;;;2.72;;
44885;SDS011;36669;51.428;21.162;2022-09-21T16:23:54;6.20;;;2.65;;
44885;SDS011;36669;51.428;21.162;2022-09-21T16:31:39;5.65;;;2.80;;
44885;SDS011;36669;51.428;21.162;2022-09-21T16:34:17;7.43;;;2.90;;
44885;SDS011;36669;51.428;21.162;2022-09-21T16:36:44;4.00;;;2.40;;
44885;SDS011;36669;51.428;21.162;2022-09-21T16:39:12;3.50;;;2.50;;
44885;SDS011;36669;51.428;21.162;2022-09-21T16:41:49;5.60;;;2.97;;
44885;SDS011;36669;51.428;21.162;2022-09-21T16:44:21;8.27;;;2.75;;
44885;SDS011;36669;51.428;21.162;2022-09-21T16:46:52;6.45;;;2.80;;
44885;SDS011;36669;51.428;21.162;2022-09-21T16:49:20;7.30;;;3.28;;
44885;SDS011;36669;51.428;21.162;2022-09-21T16:51:47;5.13;;;2.70;;
44885;SDS011;36669;51.428;21.162;2022-09-21T16:54:17;5.45;;;2.50;;
44885;SDS011;36669;51.428;21.162;2022-09-21T16:56:43;6.85;;;2.63;;
44885;SDS011;36669;51.428;21.162;2022-09-21T16:59:17;3.30;;;2.40;;
44885;SDS011;36669;51.428;21.162;2022-09-21T17:01:44;4.00;;;2.78;;
44885;SDS011;36669;51.428;21.162;2022-09-21T17:04:09;5.38;;;2.67;;
44885;SDS011;36669;51.428;21.162;2022-09-21T17:06:35;4.45;;;2.60;;
44885;SDS011;36669;51.428;21.162;2022-09-21T17:09:01;3.33;;;2.17;;
44885;SDS011;36669;51.428;21.162;2022-09-21T17:11:38;3.92;;;2.22;;
44885;SDS011;36669;51.428;21.162;2022-09-21T17:14:04;4.78;;;2.58;;
44885;SDS011;36669;51.428;21.162;2022-09-21T17:16:29;4.90;;;2.60;;
44885;SDS011;36669;51.428;21.162;2022-09-21T17:18:55;6.90;;;3.40;;
44885;SDS011;36669;51.428;21.162;2022-09-21T17:21:20;9.48;;;3.25;;
44885;SDS011;36669;51.428;21.162;2022-09-21T17:23:47;9.07;;;3.85;;
44885;SDS011;36669;51.428;21.162;2022-09-21T17:26:14;6.05;;;3.20;;
44885;SDS011;36669;51.428;21.162;2022-09-21T17:28:41;8.80;;;3.63;;
44885;SDS011;36669;51.428;21.162;2022-09-21T17:31:11;6.07;;;3.15;;
44885;SDS011;36669;51.428;21.162;2022-09-21T17:33:39;8.60;;;3.20;;
44885;SDS011;36669;51.428;21.162;2022-09-21T17:36:05;4.95;;;3.15;;
44885;SDS011;36669;51.428;21.162;2022-09-21T17:38:30;5.63;;;2.90;;
44885;SDS011;36669;51.428;21.162;2022-09-21T17:40:56;5.03;;;3.15;;
44885;SDS011;36669;51.428;21.162;2022-09-21T17:46:51;6.20;;;3.53;;
44885;SDS011;36669;51.428;21.162;2022-09-21T17:49:10;8.15;;;3.47;;
44885;SDS011;36669;51.428;21.162;2022-09-21T17:51:36;8.15;;;3.97;;
44885;SDS011;36669;51.428;21.162;2022-09-21T17:54:02;6.75;;;3.90;;
44885;SDS011;36669;51.428;21.162;2022-09-21T17:59:12;7.60;;;4.30;;
44885;SDS011;36669;51.428;21.162;2022-09-21T18:01:50;9.80;;;5.22;;
44885;SDS011;36669;51.428;21.162;2022-09-21T18:04:16;12.10;;;6.55;;
44885;SDS011;36669;51.428;21.162;2022-09-21T18:06:42;13.90;;;6.45;;
44885;SDS011;36669;51.428;21.162;2022-09-21T18:09:08;12.70;;;6.38;;
44885;SDS011;36669;51.428;21.162;2022-09-21T18:22:48;12.77;;;6.22;;
44885;SDS011;36669;51.428;21.162;2022-09-21T18:25:35;16.05;;;7.90;;
44885;SDS011;36669;51.428;21.162;2022-09-21T18:28:10;19.25;;;8.38;;
44885;SDS011;36669;51.428;21.162;2022-09-21T18:30:40;17.50;;;7.90;;